createdAt,value
2017-11-25T00:00:29.019Z,89.78
2017-11-25T00:02:56.669Z,89.94
2017-11-25T00:05:24.276Z,90.20
2017-11-25T00:07:51.880Z,90.13
2017-11-25T00:10:19.539Z,89.65
2017-11-25T00:12:47.140Z,89.88
2017-11-25T00:15:14.876Z,90.18
2017-11-25T00:17:42.640Z,90.15
2017-11-25T00:20:10.268Z,90.16
2017-11-25T00:22:37.923Z,89.91
2017-11-25T00:25:05.666Z,90.05
2017-11-25T00:27:33.334Z,89.88
2017-11-25T00:30:00.995Z,89.96
2017-11-25T00:32:28.668Z,89.98
2017-11-25T00:34:56.319Z,89.72
2017-11-25T00:37:23.924Z,89.31
2017-11-25T00:39:51.644Z,89.56
2017-11-25T00:42:19.311Z,89.67
2017-11-25T00:44:46.913Z,89.51
2017-11-25T00:47:14.560Z,89.53
2017-11-25T00:49:42.159Z,89.21
2017-11-25T00:52:09.823Z,89.65
2017-11-25T00:54:37.544Z,89.69
2017-11-25T00:57:05.259Z,89.67
2017-11-25T00:59:32.928Z,89.66
2017-11-25T01:02:00.652Z,89.63
2017-11-25T01:04:28.264Z,89.84
2017-11-25T01:06:55.885Z,89.58
2017-11-25T01:09:23.602Z,89.60
2017-11-25T01:11:51.208Z,89.58
2017-11-25T01:14:18.868Z,89.61
2017-11-25T01:16:46.524Z,89.53
2017-11-25T01:19:14.195Z,89.60
2017-11-25T01:21:41.864Z,89.38
2017-11-25T01:24:09.511Z,89.65
2017-11-25T01:26:37.181Z,89.45
2017-11-25T01:29:04.846Z,89.42
2017-11-25T01:31:32.519Z,89.46
2017-11-25T01:34:00.196Z,89.52
2017-11-25T01:36:27.823Z,89.59
2017-11-25T01:38:55.549Z,89.73
2017-11-25T01:41:23.153Z,90.00
2017-11-25T01:43:50.807Z,89.98
2017-11-25T01:46:18.528Z,89.89
2017-11-25T01:48:46.197Z,89.90
2017-11-25T01:51:13.921Z,90.11
2017-11-25T01:53:41.611Z,90.03
2017-11-25T01:56:09.348Z,90.11
2017-11-25T01:58:37.008Z,89.97
2017-11-25T02:01:04.672Z,89.86
2017-11-25T02:03:32.283Z,90.07
2017-11-25T02:05:59.949Z,90.12
2017-11-25T02:08:27.671Z,90.06
2017-11-25T02:10:55.267Z,89.90
2017-11-25T02:13:22.991Z,89.95
2017-11-25T02:15:50.696Z,89.77
2017-11-25T02:18:18.300Z,90.03
2017-11-25T02:20:45.964Z,89.97
2017-11-25T02:23:13.632Z,90.05
2017-11-25T02:25:41.271Z,89.97
2017-11-25T02:28:08.949Z,89.97
2017-11-25T02:30:36.619Z,90.03
2017-11-25T02:33:04.300Z,89.95
2017-11-25T02:35:31.990Z,90.00
2017-11-25T02:37:59.660Z,90.20
2017-11-25T02:40:27.310Z,90.16
2017-11-25T02:42:54.954Z,90.17
2017-11-25T02:45:22.720Z,90.19
2017-11-25T02:47:50.437Z,90.22
2017-11-25T02:50:18.043Z,90.19
2017-11-25T02:52:45.704Z,90.16
2017-11-25T02:55:13.325Z,90.16
2017-11-25T02:57:41.000Z,90.06
2017-11-25T03:00:08.760Z,89.91
2017-11-25T03:02:36.356Z,89.72
2017-11-25T03:05:03.959Z,89.68
2017-11-25T03:07:31.637Z,89.58
2017-11-25T03:09:59.295Z,89.51
2017-11-25T03:12:26.904Z,89.52
2017-11-25T03:14:54.560Z,89.58
2017-11-25T03:17:22.236Z,90.09
2017-11-25T03:19:49.905Z,90.15
2017-11-25T03:22:17.581Z,90.02
2017-11-25T03:24:45.240Z,89.80
2017-11-25T03:27:12.896Z,89.61
2017-11-25T03:29:40.610Z,89.83
2017-11-25T03:32:08.271Z,89.94
2017-11-25T03:34:35.937Z,89.95
2017-11-25T03:37:03.592Z,89.90
2017-11-25T03:39:31.255Z,89.91
2017-11-25T03:41:58.921Z,90.09
2017-11-25T03:44:26.582Z,89.97
2017-11-25T03:46:54.249Z,89.97
2017-11-25T03:49:21.852Z,89.90
2017-11-25T03:51:49.575Z,89.83
2017-11-25T03:54:17.304Z,90.01
2017-11-25T03:56:45.046Z,90.11
2017-11-25T03:59:12.796Z,90.26
2017-11-25T04:01:40.413Z,90.02
2017-11-25T04:04:08.020Z,89.62
2017-11-25T04:06:35.671Z,89.65
2017-11-25T04:09:03.336Z,89.46
2017-11-25T04:11:30.952Z,89.49
2017-11-25T04:13:58.607Z,89.55
2017-11-25T04:16:26.212Z,89.36
2017-11-25T04:18:53.888Z,89.24
2017-11-25T04:21:21.568Z,89.24
2017-11-25T04:23:49.197Z,89.53
2017-11-25T04:26:16.869Z,89.60
2017-11-25T04:28:44.531Z,89.95
2017-11-25T04:31:12.204Z,90.12
2017-11-25T04:33:39.881Z,89.98
2017-11-25T04:36:07.596Z,90.05
2017-11-25T04:38:35.198Z,90.27
2017-11-25T04:41:02.809Z,90.49
2017-11-25T04:43:30.496Z,90.55
2017-11-25T04:45:58.177Z,90.22
2017-11-25T04:48:25.853Z,90.23
2017-11-25T04:50:53.575Z,90.53
2017-11-25T04:53:21.293Z,90.73
2017-11-25T04:55:48.964Z,90.94
2017-11-25T04:58:16.632Z,91.06
2017-11-25T05:00:44.376Z,90.86
2017-11-25T05:03:11.989Z,90.67
2017-11-25T05:05:39.711Z,90.43
2017-11-25T05:08:07.389Z,90.24
2017-11-25T05:10:35.053Z,90.33
2017-11-25T05:13:02.733Z,90.19
2017-11-25T05:15:30.344Z,90.00
2017-11-25T05:17:57.997Z,89.97
2017-11-25T05:20:25.660Z,90.07
2017-11-25T05:22:53.264Z,89.76
2017-11-25T05:25:20.882Z,89.67
2017-11-25T05:27:48.553Z,89.72
2017-11-25T05:30:16.176Z,89.74
2017-11-25T05:32:43.885Z,89.74
2017-11-25T05:35:11.602Z,89.64
2017-11-25T05:37:39.203Z,89.95
2017-11-25T05:40:06.872Z,89.89
2017-11-25T05:42:34.601Z,89.91
2017-11-25T05:45:02.282Z,90.09
2017-11-25T05:47:29.889Z,90.33
2017-11-25T05:49:57.548Z,90.58
2017-11-25T05:52:25.218Z,90.60
2017-11-25T05:54:52.885Z,90.46
2017-11-25T05:57:20.561Z,90.12
2017-11-25T05:59:48.182Z,89.83
2017-11-25T06:02:15.804Z,89.81
2017-11-25T06:04:43.477Z,89.73
2017-11-25T06:07:11.144Z,90.01
2017-11-25T06:09:38.750Z,89.86
2017-11-25T06:12:06.469Z,89.92
2017-11-25T06:14:34.155Z,89.97
2017-11-25T06:17:01.765Z,89.94
2017-11-25T06:19:29.426Z,89.83
2017-11-25T06:21:57.089Z,89.58
2017-11-25T06:24:24.758Z,89.60
2017-11-25T06:26:52.496Z,89.52
2017-11-25T06:29:20.105Z,89.41
2017-11-25T06:31:47.725Z,89.75
2017-11-25T06:34:15.402Z,89.58
2017-11-25T06:36:43.069Z,89.61
2017-11-25T06:39:10.752Z,89.55
2017-11-25T06:41:38.516Z,89.86
2017-11-25T06:44:06.182Z,89.37
2017-11-25T06:46:33.912Z,89.72
2017-11-25T06:49:01.609Z,89.73
2017-11-25T06:51:29.213Z,89.52
2017-11-25T06:53:56.883Z,89.26
2017-11-25T06:56:24.550Z,89.08
2017-11-25T06:58:52.161Z,88.78
2017-11-25T07:01:19.773Z,88.56
2017-11-25T07:03:47.494Z,88.31
2017-11-25T07:06:15.165Z,87.79
2017-11-25T07:08:42.781Z,87.90
2017-11-25T07:11:10.464Z,88.02
2017-11-25T07:13:38.087Z,87.81
2017-11-25T07:16:05.700Z,87.91
2017-11-25T07:18:33.372Z,88.34
2017-11-25T07:21:00.992Z,88.48
2017-11-25T07:23:28.600Z,87.75
2017-11-25T07:25:56.261Z,87.15
2017-11-25T07:28:23.933Z,87.61
2017-11-25T07:30:51.548Z,87.15
2017-11-25T07:33:19.226Z,86.94
2017-11-25T07:35:46.841Z,86.89
2017-11-25T07:38:14.512Z,86.43
2017-11-25T07:40:42.174Z,86.49
2017-11-25T07:43:09.848Z,86.16
2017-11-25T07:45:37.465Z,85.17
2017-11-25T07:48:05.137Z,85.27
2017-11-25T07:50:32.744Z,85.23
2017-11-25T07:53:00.413Z,85.64
2017-11-25T07:55:28.102Z,85.40
2017-11-25T07:57:55.837Z,85.29
2017-11-25T08:00:23.525Z,84.63
2017-11-25T08:02:51.194Z,84.51
2017-11-25T08:05:18.805Z,85.03
2017-11-25T08:07:46.500Z,84.55
2017-11-25T08:10:14.192Z,84.85
2017-11-25T08:12:41.804Z,85.11
2017-11-25T08:15:09.419Z,84.77
2017-11-25T08:17:37.222Z,84.73
2017-11-25T08:20:04.848Z,84.95
2017-11-25T08:22:32.516Z,85.40
2017-11-25T08:25:00.241Z,85.27
2017-11-25T08:27:27.912Z,85.01
2017-11-25T08:29:55.598Z,85.29
2017-11-25T08:32:23.276Z,84.62
2017-11-25T08:34:50.889Z,84.42
2017-11-25T08:37:18.510Z,84.48
2017-11-25T08:39:46.244Z,84.52
2017-11-25T08:42:13.853Z,83.91
2017-11-25T08:44:41.527Z,84.59
2017-11-25T08:47:09.261Z,84.63
2017-11-25T08:49:36.872Z,84.15
2017-11-25T08:52:04.541Z,84.27
2017-11-25T08:54:32.252Z,83.82
2017-11-25T08:56:59.932Z,83.86
2017-11-25T08:59:27.599Z,83.25
2017-11-25T09:01:55.253Z,84.01
2017-11-25T09:04:22.868Z,83.80
2017-11-25T09:06:50.476Z,83.62
2017-11-25T09:09:18.189Z,83.05
2017-11-25T09:11:45.800Z,83.76
2017-11-25T09:14:13.421Z,83.23
2017-11-25T09:16:41.076Z,83.73
2017-11-25T09:19:08.741Z,83.55
2017-11-25T09:21:36.364Z,83.19
2017-11-25T09:24:04.027Z,82.39
2017-11-25T09:26:31.644Z,82.26
2017-11-25T09:28:59.279Z,82.89
2017-11-25T09:31:26.997Z,83.45
2017-11-25T09:33:54.668Z,82.65
2017-11-25T09:36:22.336Z,81.75
2017-11-25T09:38:49.999Z,81.82
2017-11-25T09:41:17.680Z,82.98
2017-11-25T09:43:45.295Z,82.64
2017-11-25T09:46:12.964Z,82.50
2017-11-25T09:48:40.640Z,82.96
2017-11-25T09:51:08.262Z,82.73
2017-11-25T09:53:35.920Z,82.10
2017-11-25T09:56:03.533Z,81.91
2017-11-25T09:58:31.136Z,82.21
2017-11-25T10:00:58.800Z,82.49
2017-11-25T10:03:26.476Z,81.53
2017-11-25T10:05:54.096Z,81.90
2017-11-25T10:08:21.747Z,81.36
2017-11-25T10:10:49.415Z,81.38
2017-11-25T10:13:17.099Z,81.68
2017-11-25T10:15:44.752Z,82.01
2017-11-25T10:18:12.418Z,80.62
2017-11-25T10:20:40.101Z,80.47
2017-11-25T10:23:07.829Z,80.81
2017-11-25T10:25:35.444Z,80.13
2017-11-25T10:28:03.141Z,80.40
2017-11-25T10:30:30.835Z,81.75
2017-11-25T10:32:58.475Z,80.56
2017-11-25T10:35:26.148Z,80.08
2017-11-25T10:37:53.937Z,80.14
2017-11-25T10:40:21.546Z,80.97
2017-11-25T10:42:49.152Z,80.65
2017-11-25T10:45:16.877Z,80.63
2017-11-25T10:47:44.601Z,80.66
2017-11-25T10:50:12.276Z,80.37
2017-11-25T10:52:39.984Z,81.44
2017-11-25T10:55:07.652Z,82.00
2017-11-25T10:57:35.261Z,81.69
2017-11-25T11:00:02.941Z,81.42
2017-11-25T11:02:30.559Z,81.47
2017-11-25T11:04:58.170Z,81.02
2017-11-25T11:07:25.884Z,81.68
2017-11-25T11:09:53.553Z,81.96
2017-11-25T11:12:21.238Z,81.32
2017-11-25T11:14:48.903Z,81.39
2017-11-25T11:17:16.576Z,81.65
2017-11-25T11:19:44.176Z,81.35
2017-11-25T11:22:11.834Z,81.18
2017-11-25T11:24:39.444Z,81.30
2017-11-25T11:27:07.055Z,81.96
2017-11-25T11:29:34.771Z,82.14
2017-11-25T11:32:02.389Z,82.20
2017-11-25T11:34:30.073Z,82.68
2017-11-25T11:36:57.744Z,82.59
2017-11-25T11:39:25.408Z,82.80
2017-11-25T11:41:53.040Z,82.94
2017-11-25T11:44:20.748Z,82.81
2017-11-25T11:46:48.360Z,82.50
2017-11-25T11:49:15.977Z,83.84
2017-11-25T11:51:43.632Z,83.77
2017-11-25T11:54:11.368Z,84.29
2017-11-25T11:56:39.034Z,83.85
2017-11-25T11:59:06.685Z,83.62
2017-11-25T12:01:34.348Z,83.72
2017-11-25T12:04:01.970Z,84.27
2017-11-25T12:06:29.668Z,84.57
2017-11-25T12:08:57.309Z,85.00
2017-11-25T12:11:25.001Z,85.31
2017-11-25T12:13:52.750Z,84.93
2017-11-25T12:16:20.362Z,85.01
2017-11-25T12:18:47.989Z,85.18
2017-11-25T12:21:15.668Z,84.84
2017-11-25T12:23:43.340Z,84.95
2017-11-25T12:26:10.939Z,85.22
2017-11-25T12:28:38.620Z,84.70
2017-11-25T12:31:06.243Z,84.71
2017-11-25T12:33:33.910Z,85.17
2017-11-25T12:36:01.688Z,85.29
2017-11-25T12:38:29.369Z,85.09
2017-11-25T12:40:57.093Z,85.07
2017-11-25T12:43:24.828Z,84.64
2017-11-25T12:45:52.443Z,84.72
2017-11-25T12:48:20.069Z,84.36
2017-11-25T12:50:47.717Z,85.00
2017-11-25T12:53:15.406Z,85.09
2017-11-25T12:55:43.021Z,85.29
2017-11-25T12:58:10.696Z,85.72
2017-11-25T13:00:38.310Z,85.50
2017-11-25T13:03:05.917Z,85.19
2017-11-25T13:05:33.568Z,85.20
2017-11-25T13:08:01.181Z,85.92
2017-11-25T13:10:28.847Z,86.20
2017-11-25T13:12:56.507Z,85.80
2017-11-25T13:15:24.113Z,85.87
2017-11-25T13:17:51.723Z,85.87
2017-11-25T13:20:19.382Z,85.98
2017-11-25T13:22:46.984Z,85.89
2017-11-25T13:25:14.596Z,86.13
2017-11-25T13:27:42.259Z,86.02
2017-11-25T13:30:09.921Z,86.22
2017-11-25T13:32:37.584Z,86.35
2017-11-25T13:35:05.277Z,86.24
2017-11-25T13:37:32.886Z,86.97
2017-11-25T13:40:00.510Z,87.16
2017-11-25T13:42:28.239Z,87.23
2017-11-25T13:44:55.917Z,87.06
2017-11-25T13:47:23.556Z,87.14
2017-11-25T13:49:51.220Z,87.11
2017-11-25T13:52:18.848Z,87.01
2017-11-25T13:54:46.513Z,87.21
2017-11-25T13:57:14.193Z,87.02
2017-11-25T13:59:41.805Z,87.24
2017-11-25T14:02:09.481Z,87.07
2017-11-25T14:04:37.213Z,86.90
2017-11-25T14:07:04.892Z,87.16
2017-11-25T14:09:32.511Z,86.97
2017-11-25T14:12:00.172Z,87.31
2017-11-25T14:14:27.852Z,87.50
2017-11-25T14:16:55.469Z,87.47
2017-11-25T14:19:23.152Z,87.86
2017-11-25T14:21:50.773Z,87.57
2017-11-25T14:24:18.388Z,87.69
2017-11-25T14:26:46.115Z,87.71
2017-11-25T14:29:13.744Z,87.86
2017-11-25T14:31:41.352Z,87.95
2017-11-25T14:34:09.064Z,87.71
2017-11-25T14:36:36.669Z,87.72
2017-11-25T14:39:04.440Z,88.05
2017-11-25T14:41:32.104Z,88.09
2017-11-25T14:43:59.717Z,87.94
2017-11-25T14:46:27.401Z,88.13
2017-11-25T14:48:55.140Z,87.91
2017-11-25T14:51:22.748Z,88.03
2017-11-25T14:53:50.361Z,87.73
2017-11-25T14:56:18.041Z,87.79
2017-11-25T14:58:45.661Z,87.88
2017-11-25T15:01:13.318Z,87.90
2017-11-25T15:03:41.040Z,88.00
2017-11-25T15:06:08.648Z,88.18
2017-11-25T15:08:36.312Z,88.10
2017-11-25T15:11:04.046Z,88.38
2017-11-25T15:13:31.653Z,88.59
2017-11-25T15:15:59.284Z,88.81
2017-11-25T15:18:26.949Z,88.83
2017-11-25T15:20:54.648Z,88.80
2017-11-25T15:23:22.265Z,88.93
2017-11-25T15:25:49.985Z,88.73
2017-11-25T15:28:17.665Z,88.37
2017-11-25T15:30:45.288Z,88.41
2017-11-25T15:33:13.012Z,88.80
2017-11-25T15:35:40.676Z,88.60
2017-11-25T15:38:08.293Z,88.44
2017-11-25T15:40:35.987Z,88.68
2017-11-25T15:43:03.644Z,88.80
2017-11-25T15:45:31.288Z,88.87
2017-11-25T15:47:59.013Z,88.91
2017-11-25T15:50:26.630Z,88.81
2017-11-25T15:52:54.260Z,88.78
2017-11-25T15:55:21.942Z,88.80
2017-11-25T15:57:49.641Z,88.96
2017-11-25T16:00:17.361Z,89.21
2017-11-25T16:02:45.100Z,89.21
2017-11-25T16:05:12.720Z,89.13
2017-11-25T16:07:40.397Z,88.93
2017-11-25T16:10:08.057Z,88.71
2017-11-25T16:12:35.689Z,88.65
2017-11-25T16:15:03.413Z,88.73
2017-11-25T16:17:31.073Z,88.90
2017-11-25T16:19:58.712Z,89.16
2017-11-25T16:22:26.385Z,89.09
2017-11-25T16:24:54.116Z,88.96
2017-11-25T16:27:21.727Z,88.89
2017-11-25T16:29:49.408Z,89.05
2017-11-25T16:32:17.135Z,89.17
2017-11-25T16:34:44.748Z,89.48
2017-11-25T16:37:12.372Z,89.57
2017-11-25T16:39:40.028Z,89.52
2017-11-25T16:42:08.531Z,89.39
2017-11-25T16:44:36.205Z,89.23
2017-11-25T16:47:03.859Z,89.31
2017-11-25T16:49:31.571Z,89.60
2017-11-25T16:51:59.255Z,89.63
2017-11-25T16:54:26.919Z,89.51
2017-11-25T16:56:54.528Z,89.41
2017-11-25T16:59:23.022Z,88.84
2017-11-25T17:01:50.688Z,88.83
2017-11-25T17:04:18.301Z,89.14
2017-11-25T17:06:46.259Z,89.42
2017-11-25T17:09:13.976Z,89.90
2017-11-25T17:11:41.581Z,90.08
2017-11-25T17:14:09.261Z,89.89
2017-11-25T17:16:36.960Z,90.28
2017-11-25T17:19:04.572Z,90.43
2017-11-25T17:21:32.184Z,90.49
2017-11-25T17:23:59.856Z,90.42
2017-11-25T17:26:27.464Z,90.12
2017-11-25T17:28:55.079Z,90.03
2017-11-25T17:31:22.744Z,89.90
2017-11-25T17:33:50.352Z,89.70
2017-11-25T17:36:18.085Z,89.59
2017-11-25T17:38:45.741Z,89.92
2017-11-25T17:41:13.356Z,89.59
2017-11-25T17:43:41.020Z,89.37
2017-11-25T17:46:08.696Z,89.46
2017-11-25T17:48:36.363Z,89.30
2017-11-25T17:51:03.979Z,89.20
2017-11-25T17:53:31.653Z,89.36
2017-11-25T17:55:59.268Z,89.34
2017-11-25T17:58:26.940Z,89.33
2017-11-25T18:00:54.607Z,89.70
2017-11-25T18:03:22.280Z,89.57
2017-11-25T18:05:49.895Z,89.40
2017-11-25T18:08:17.557Z,89.40
2017-11-25T18:10:45.170Z,89.55
2017-11-25T18:13:12.840Z,89.64
2017-11-25T18:15:40.555Z,89.47
2017-11-25T18:18:08.221Z,89.64
2017-11-25T18:20:35.833Z,89.79
2017-11-25T18:23:03.493Z,89.71
2017-11-25T18:25:31.161Z,89.78
2017-11-25T18:27:58.880Z,89.50
2017-11-25T18:30:26.745Z,89.54
2017-11-25T18:32:54.349Z,89.20
2017-11-25T18:35:22.031Z,89.24
2017-11-25T18:37:49.746Z,89.23
2017-11-25T18:40:17.487Z,89.17
2017-11-25T18:42:45.170Z,88.98
2017-11-25T18:45:12.891Z,89.09
2017-11-25T18:47:40.626Z,88.87
2017-11-25T18:50:08.245Z,88.94
2017-11-25T18:52:35.908Z,89.12
2017-11-25T18:55:03.521Z,89.12
2017-11-25T18:57:31.130Z,88.90
2017-11-25T18:59:58.868Z,89.16
2017-11-25T19:02:26.532Z,89.11
2017-11-25T19:04:54.145Z,89.47
2017-11-25T19:07:21.813Z,89.69
2017-11-25T19:09:49.433Z,89.68
2017-11-25T19:12:17.036Z,89.50
2017-11-25T19:14:44.723Z,89.53
2017-11-25T19:17:12.398Z,89.48
2017-11-25T19:19:40.065Z,89.35
2017-11-25T19:22:07.777Z,89.36
2017-11-25T19:24:35.384Z,89.62
2017-11-25T19:27:03.000Z,90.10
2017-11-25T19:29:30.672Z,90.11
2017-11-25T19:31:58.346Z,90.06
2017-11-25T19:34:26.023Z,90.21
2017-11-25T19:36:53.680Z,90.38
2017-11-25T19:39:21.291Z,90.50
2017-11-25T19:41:48.958Z,90.47
2017-11-25T19:44:16.687Z,90.32
2017-11-25T19:46:44.372Z,89.99
2017-11-25T19:49:11.993Z,90.07
2017-11-25T19:51:39.687Z,90.26
2017-11-25T19:54:07.349Z,90.31
2017-11-25T19:56:35.031Z,90.18
2017-11-25T19:59:02.687Z,90.16
2017-11-25T20:01:30.299Z,90.43
2017-11-25T20:03:57.912Z,90.47
2017-11-25T20:06:25.584Z,90.19
2017-11-25T20:08:53.209Z,90.10
2017-11-25T20:11:20.825Z,90.07
2017-11-25T20:13:48.559Z,90.08
2017-11-25T20:16:16.225Z,89.95
2017-11-25T20:18:43.905Z,89.80
2017-11-25T20:21:11.618Z,90.00
2017-11-25T20:23:39.232Z,90.27
2017-11-25T20:26:06.843Z,90.24
2017-11-25T20:28:34.518Z,90.22
2017-11-25T20:31:02.151Z,90.24
2017-11-25T20:33:29.764Z,90.53
2017-11-25T20:35:57.416Z,90.83
2017-11-25T20:38:25.028Z,90.93
2017-11-25T20:40:52.705Z,90.96
2017-11-25T20:43:20.393Z,90.92
2017-11-25T20:45:48.071Z,90.67
2017-11-25T20:48:15.787Z,90.58
2017-11-25T20:50:43.439Z,90.37
2017-11-25T20:53:11.052Z,90.15
2017-11-25T20:55:38.720Z,89.89
2017-11-25T20:58:06.395Z,89.70
2017-11-25T21:00:34.068Z,89.52
2017-11-25T21:03:01.748Z,89.41
2017-11-25T21:05:29.481Z,89.54
2017-11-25T21:07:57.088Z,89.69
2017-11-25T21:10:24.763Z,89.83
2017-11-25T21:12:52.445Z,89.85
2017-11-25T21:15:20.059Z,89.71
2017-11-25T21:17:47.713Z,89.42
2017-11-25T21:20:15.368Z,89.37
2017-11-25T21:22:42.991Z,89.58
2017-11-25T21:25:10.614Z,89.58
2017-11-25T21:27:38.280Z,89.66
2017-11-25T21:30:05.984Z,89.69
2017-11-25T21:32:33.592Z,89.73
2017-11-25T21:35:01.322Z,89.71
2017-11-25T21:37:28.950Z,89.56
2017-11-25T21:39:56.560Z,89.45
2017-11-25T21:42:24.284Z,89.37
2017-11-25T21:44:51.895Z,89.35
2017-11-25T21:47:19.570Z,89.21
2017-11-25T21:49:47.276Z,89.24
2017-11-25T21:52:14.989Z,89.20
2017-11-25T21:54:42.628Z,89.24
2017-11-25T21:57:10.368Z,89.22
2017-11-25T21:59:38.001Z,89.18
2017-11-25T22:02:05.678Z,89.13
2017-11-25T22:04:33.350Z,88.92
2017-11-25T22:07:00.965Z,89.02
2017-11-25T22:09:28.645Z,89.12
2017-11-25T22:11:56.309Z,89.04
2017-11-25T22:14:23.932Z,89.32
2017-11-25T22:16:51.565Z,89.21
2017-11-25T22:19:19.230Z,89.07
2017-11-25T22:21:46.849Z,89.05
2017-11-25T22:24:14.523Z,89.19
2017-11-25T22:26:42.192Z,89.36
2017-11-25T22:29:09.865Z,89.15
2017-11-25T22:31:37.485Z,89.29
2017-11-25T22:34:05.198Z,89.50
2017-11-25T22:36:32.871Z,89.44
2017-11-25T22:39:00.481Z,89.40
2017-11-25T22:41:28.161Z,89.60
2017-11-25T22:43:55.768Z,89.55
2017-11-25T22:46:23.432Z,89.16
2017-11-25T22:48:51.162Z,89.27
2017-11-25T22:51:18.776Z,89.20
2017-11-25T22:53:46.468Z,89.47
2017-11-25T22:56:14.157Z,89.65
2017-11-25T22:58:41.763Z,89.63
2017-11-25T23:01:09.552Z,89.83
2017-11-25T23:03:37.264Z,89.74
2017-11-25T23:06:10.661Z,89.83
2017-11-25T23:08:38.319Z,89.93
2017-11-25T23:11:05.933Z,90.05
2017-11-25T23:13:33.537Z,90.15
2017-11-25T23:16:01.265Z,90.28
2017-11-25T23:18:28.876Z,90.50
2017-11-25T23:20:56.546Z,90.45
2017-11-25T23:23:24.276Z,90.36
2017-11-25T23:25:51.894Z,90.30
2017-11-25T23:28:19.502Z,90.47
2017-11-25T23:30:47.165Z,90.61
2017-11-25T23:33:14.785Z,90.82
2017-11-25T23:35:42.401Z,90.41
2017-11-25T23:38:10.129Z,90.44
2017-11-25T23:40:37.749Z,90.35
2017-11-25T23:43:05.364Z,90.53
2017-11-25T23:45:33.040Z,90.61
2017-11-25T23:48:00.655Z,90.59
2017-11-25T23:50:28.269Z,90.31
2017-11-25T23:52:55.988Z,90.45
2017-11-25T23:55:23.661Z,90.57
2017-11-25T23:57:51.339Z,90.39
